Time;durP1;ratioP1;P1;durP2;ratioP2;P2;SDS_P1;SDS_P2;PMS_P1;PMS_P2;Temp;Humidity;BMP_temperature;BMP_pressure;BME280_temperature;BME280_humidity;BME280_pressure;Samples;Min_cycle;Max_cycle;Signal;HPM_P1;HPM_P2
2022/09/23 00:00:19;;;;;;;1999.90;999.90;;;12.90;99.90;;;;;;5014171;28;20202;-69
2022/09/23 00:02:47;;;;;;;1999.90;999.90;;;12.90;99.90;;;;;;5014086;28;20181;-69
2022/09/23 00:05:13;;;;;;;1999.90;999.90;;;12.90;99.90;;;;;;5013884;28;20585;-69
2022/09/23 00:07:39;;;;;;;1999.90;999.90;;;12.90;99.90;;;;;;5013727;28;20407;-69
2022/09/23 00:10:05;;;;;;;1999.90;999.90;;;12.90;99.90;;;;;;5013952;28;20404;-69
2022/09/23 00:12:32;;;;;;;1999.90;999.90;;;12.90;99.90;;;;;;5017686;28;20570;-70
2022/09/23 00:14:57;;;;;;;1999.90;999.90;;;12.90;99.90;;;;;;5018897;28;20504;-70
2022/09/23 00:17:23;;;;;;;1999.90;999.90;;;12.90;99.90;;;;;;5017801;28;20441;-70
2022/09/23 00:19:49;;;;;;;1999.90;999.90;;;12.90;99.90;;;;;;5017801;28;20268;-70
2022/09/23 00:22:15;;;;;;;1999.90;999.90;;;12.90;99.90;;;;;;5017413;28;20173;-69
2022/09/23 00:24:41;;;;;;;1999.90;999.90;;;12.80;99.90;;;;;;5013422;28;20735;-69
2022/09/23 00:27:06;;;;;;;1999.90;999.90;;;12.80;99.90;;;;;;5012827;28;20408;-70
2022/09/23 00:29:32;;;;;;;1999.90;999.90;;;12.80;99.90;;;;;;5013610;28;20171;-69
2022/09/23 00:31:58;;;;;;;1999.90;999.90;;;12.80;99.90;;;;;;5013620;28;20192;-69
2022/09/23 00:34:23;;;;;;;1999.90;999.90;;;12.80;99.90;;;;;;5013401;28;20661;-69
2022/09/23 00:36:49;;;;;;;1999.90;999.90;;;12.80;99.90;;;;;;5013383;28;20183;-68
2022/09/23 00:39:14;;;;;;;1999.90;999.90;;;12.80;99.90;;;;;;5013416;28;20179;-69
2022/09/23 00:41:40;;;;;;;1999.90;999.90;;;12.70;99.90;;;;;;5013403;28;20202;-69
2022/09/23 00:44:38;;;;;;;1999.90;999.90;;;12.70;99.90;;;;;;5013105;28;20206;-69
2022/09/23 00:47:04;;;;;;;1999.90;999.90;;;12.60;99.90;;;;;;4980095;28;20696;-69
2022/09/23 00:49:30;;;;;;;1999.90;999.90;;;12.50;99.90;;;;;;5013202;28;20414;-69
2022/09/23 00:52:08;;;;;;;1999.90;999.90;;;12.40;99.90;;;;;;5013184;28;20770;-69
2022/09/23 00:54:34;;;;;;;1999.90;999.90;;;12.40;99.90;;;;;;5013042;28;20232;-69
2022/09/23 00:57:01;;;;;;;1999.90;999.90;;;12.20;99.90;;;;;;5012823;28;20400;-69
2022/09/23 00:59:27;;;;;;;1999.90;999.90;;;12.10;99.90;;;;;;5013024;28;20172;-68
2022/09/23 01:01:55;;;;;;;1999.90;999.90;;;12.10;99.90;;;;;;5013234;28;20405;-67
2022/09/23 01:04:24;;;;;;;1999.90;999.90;;;12.10;99.90;;;;;;5012845;28;20472;-67
2022/09/23 01:06:49;;;;;;;1999.90;999.90;;;12.00;99.90;;;;;;5012773;28;20410;-67
2022/09/23 01:09:16;;;;;;;1999.90;999.90;;;12.00;99.90;;;;;;5012908;28;20759;-67
2022/09/23 01:11:55;;;;;;;1999.90;999.90;;;12.10;99.90;;;;;;5012823;28;20165;-67
2022/09/23 01:14:27;;;;;;;1999.90;999.90;;;12.00;99.90;;;;;;5012806;28;20447;-67
2022/09/23 01:16:57;;;;;;;1999.90;999.90;;;12.00;99.90;;;;;;5012503;28;20416;-69
2022/09/23 01:19:25;;;;;;;1999.90;999.90;;;12.00;99.90;;;;;;5012715;28;20829;-69
2022/09/23 01:21:54;;;;;;;1999.90;999.90;;;12.00;99.90;;;;;;5012712;28;20405;-69
2022/09/23 01:24:56;;;;;;;1999.90;999.90;;;12.00;99.90;;;;;;5012503;28;20877;-68
2022/09/23 01:28:05;;;;;;;1999.90;999.90;;;12.00;99.90;;;;;;5012374;28;20403;-67
2022/09/23 01:30:36;;;;;;;1999.90;999.90;;;12.00;99.90;;;;;;5012629;28;20762;-68
2022/09/23 01:33:06;;;;;;;1999.90;999.90;;;12.00;99.90;;;;;;5012535;28;20408;-67
2022/09/23 01:35:38;;;;;;;1999.90;999.90;;;12.10;99.90;;;;;;5013729;28;20440;-71
2022/09/23 01:38:42;;;;;;;1999.90;999.90;;;12.10;99.90;;;;;;5014716;28;20400;-71
2022/09/23 01:41:19;;;;;;;1999.90;999.90;;;12.10;99.90;;;;;;4983307;28;20420;-67
2022/09/23 01:43:56;;;;;;;1999.90;999.90;;;12.00;99.90;;;;;;5012413;28;20407;-69
2022/09/23 01:46:28;;;;;;;1999.90;999.90;;;12.00;99.90;;;;;;5012188;28;20460;-68
2022/09/23 01:49:06;;;;;;;1999.90;999.90;;;12.00;99.90;;;;;;5012230;28;20531;-69
2022/09/23 01:51:38;;;;;;;1999.90;999.90;;;12.00;99.90;;;;;;5012307;28;20459;-68
2022/09/23 01:54:14;;;;;;;1999.90;999.90;;;11.90;99.90;;;;;;5012238;28;20949;-69
2022/09/23 01:57:06;;;;;;;1999.90;999.90;;;11.90;99.90;;;;;;5012023;28;20402;-67
2022/09/23 01:59:52;;;;;;;1999.90;999.90;;;11.80;99.90;;;;;;5012221;28;20462;-67
2022/09/23 02:02:36;;;;;;;1999.90;999.90;;;11.90;99.90;;;;;;5012240;28;20819;-67
2022/09/23 02:05:13;;;;;;;1999.90;999.90;;;11.80;99.90;;;;;;5012076;28;20532;-68
2022/09/23 02:07:49;;;;;;;1999.90;999.90;;;11.80;99.90;;;;;;5011923;28;20958;-67
2022/09/23 02:10:29;;;;;;;1999.90;999.90;;;11.70;99.90;;;;;;5014769;28;20427;-70
2022/09/23 02:13:04;;;;;;;1999.90;999.90;;;11.70;99.90;;;;;;5016423;28;20933;-70
2022/09/23 02:15:43;;;;;;;1999.90;999.90;;;11.70;99.90;;;;;;5015891;28;20420;-68
2022/09/23 02:18:16;;;;;;;1999.90;999.90;;;11.70;99.90;;;;;;5011892;28;20404;-69
2022/09/23 02:20:42;;;;;;;1999.90;999.90;;;11.60;99.90;;;;;;5012062;28;20410;-69
2022/09/23 02:23:38;;;;;;;1999.90;999.90;;;11.60;99.90;;;;;;5012058;28;20412;-69
2022/09/23 02:26:18;;;;;;;1999.90;999.90;;;11.60;99.90;;;;;;5011710;28;20463;-69
2022/09/23 02:28:50;;;;;;;1999.90;999.90;;;11.50;99.90;;;;;;5011819;28;20408;-68
2022/09/23 02:31:29;;;;;;;1999.90;999.90;;;11.50;99.90;;;;;;5011895;28;20411;-69
2022/09/23 02:34:03;;;;;;;1999.90;999.90;;;11.40;99.90;;;;;;5011951;28;20908;-69
2022/09/23 02:36:36;;;;;;;1999.90;999.90;;;11.40;99.90;;;;;;5011793;28;20407;-69
2022/09/23 02:39:07;;;;;;;1999.90;999.90;;;11.40;99.90;;;;;;5015074;28;20914;-70
2022/09/23 02:41:57;;;;;;;1999.90;999.90;;;11.40;99.90;;;;;;5015106;28;20481;-70
2022/09/23 02:44:23;;;;;;;1999.90;999.90;;;11.30;99.90;;;;;;5015510;28;20471;-70
2022/09/23 02:46:50;;;;;;;1999.90;999.90;;;11.30;99.90;;;;;;5014537;28;20498;-71
2022/09/23 02:49:22;;;;;;;1999.90;999.90;;;11.20;99.90;;;;;;5015887;28;20667;-68
2022/09/23 02:51:48;;;;;;;1999.90;999.90;;;11.20;99.90;;;;;;5017695;28;20759;-70
2022/09/23 02:54:17;;;;;;;1999.90;999.90;;;11.20;99.90;;;;;;5019307;28;20392;-70
2022/09/23 02:56:43;;;;;;;1999.90;999.90;;;11.20;99.90;;;;;;5018577;28;20392;-71
2022/09/23 02:59:10;;;;;;;1999.90;999.90;;;11.10;99.90;;;;;;5018880;28;20400;-70
2022/09/23 03:02:07;;;;;;;1999.90;999.90;;;11.00;99.90;;;;;;5018496;28;20551;-71
2022/09/23 03:04:46;;;;;;;1999.90;999.90;;;10.90;99.90;;;;;;5018075;28;20830;-70
2022/09/23 03:07:35;;;;;;;1999.90;999.90;;;10.90;99.90;;;;;;5017765;28;20403;-70
2022/09/23 03:10:21;;;;;;;1999.90;999.90;;;11.00;99.90;;;;;;5017878;28;20404;-69
2022/09/23 03:13:17;;;;;;;1999.90;999.90;;;11.00;99.90;;;;;;5016759;28;20820;-71
2022/09/23 03:16:20;;;;;;;1999.90;999.90;;;11.00;99.90;;;;;;5016207;28;20432;-70
2022/09/23 03:18:54;;;;;;;1999.90;999.90;;;11.00;99.90;;;;;;5017113;28;20411;-70
2022/09/23 03:21:33;;;;;;;1999.90;999.90;;;11.00;99.90;;;;;;5015962;28;20418;-71
2022/09/23 03:24:03;;;;;;;1999.90;999.90;;;11.00;99.90;;;;;;5015785;28;20471;-69
2022/09/23 03:26:32;;;;;;;1999.90;999.90;;;11.00;99.90;;;;;;5015647;28;20848;-71
2022/09/23 03:29:02;;;;;;;1999.90;999.90;;;10.90;99.90;;;;;;5014358;28;20465;-70
2022/09/23 03:31:28;;;;;;;1999.90;999.90;;;11.00;99.90;;;;;;5015971;28;20399;-71
2022/09/23 03:33:57;;;;;;;1999.90;999.90;;;10.90;99.90;;;;;;5015503;28;20396;-70
2022/09/23 03:36:52;;;;;;;1999.90;999.90;;;11.00;99.90;;;;;;5015408;28;20766;-71
2022/09/23 03:39:40;;;;;;;1999.90;999.90;;;10.90;99.90;;;;;;5015465;28;20920;-70
2022/09/23 03:42:28;;;;;;;1999.90;999.90;;;10.90;99.90;;;;;;5015527;28;20399;-70
2022/09/23 03:45:00;;;;;;;1999.90;999.90;;;10.80;99.90;;;;;;5015101;28;20843;-71
2022/09/23 03:47:27;;;;;;;1999.90;999.90;;;10.80;99.90;;;;;;5015150;28;20542;-71
2022/09/23 03:49:53;;;;;;;1999.90;999.90;;;10.80;99.90;;;;;;5014816;28;20404;-71
2022/09/23 03:52:21;;;;;;;1999.90;999.90;;;10.80;99.90;;;;;;5013808;23;20873;-67
2022/09/23 03:54:47;;;;;;;1999.90;999.90;;;10.80;99.90;;;;;;4994677;28;20905;-68
2022/09/23 03:57:13;;;;;;;1999.90;999.90;;;10.80;99.90;;;;;;4994462;28;20768;-68
2022/09/23 03:59:38;;;;;;;1999.90;999.90;;;10.70;99.90;;;;;;4994663;28;20397;-67
2022/09/23 04:02:06;;;;;;;1999.90;999.90;;;10.70;99.90;;;;;;4993736;28;20217;-68
2022/09/23 04:04:33;;;;;;;1999.90;999.90;;;10.70;99.90;;;;;;4994394;28;20685;-68
2022/09/23 04:06:59;;;;;;;1999.90;999.90;;;10.60;99.90;;;;;;4993998;28;20898;-67
2022/09/23 04:09:25;;;;;;;1999.90;999.90;;;10.60;99.90;;;;;;4994438;28;20484;-67
2022/09/23 04:11:52;;;;;;;1999.90;999.90;;;10.60;99.90;;;;;;4994587;28;21016;-67
2022/09/23 04:14:19;;;;;;;1999.90;999.90;;;10.50;99.90;;;;;;4994492;28;20496;-68
2022/09/23 04:16:45;;;;;;;1999.90;999.90;;;10.50;99.90;;;;;;4994114;28;20408;-66
2022/09/23 04:19:12;;;;;;;1999.90;999.90;;;10.40;99.90;;;;;;4994188;28;20413;-68
2022/09/23 04:21:38;;;;;;;1999.90;999.90;;;10.40;99.90;;;;;;4994090;28;20507;-67
2022/09/23 04:24:04;;;;;;;1999.90;999.90;;;10.40;99.90;;;;;;4994068;28;20401;-68
2022/09/23 04:26:31;;;;;;;1999.90;999.90;;;10.30;99.90;;;;;;4993988;28;20456;-67
2022/09/23 04:28:57;;;;;;;1999.90;999.90;;;10.20;99.90;;;;;;4993937;28;20256;-67
2022/09/23 04:31:23;;;;;;;1999.90;999.90;;;10.20;99.90;;;;;;4993899;28;20426;-68
2022/09/23 04:33:52;;;;;;;1999.90;999.90;;;10.20;99.90;;;;;;4993721;28;20436;-68
2022/09/23 04:36:17;;;;;;;1999.90;999.90;;;10.20;99.90;;;;;;4993930;28;20409;-68
2022/09/23 04:38:44;;;;;;;1999.90;999.90;;;10.20;99.90;;;;;;4993704;28;20409;-67
2022/09/23 04:41:10;;;;;;;1999.90;999.90;;;10.20;99.90;;;;;;4993817;28;20665;-68
2022/09/23 04:43:36;;;;;;;1999.90;999.90;;;10.10;99.90;;;;;;4993739;28;20455;-67
2022/09/23 04:46:06;;;;;;;1999.90;999.90;;;10.10;99.90;;;;;;4993603;28;20556;-68
2022/09/23 04:48:34;;;;;;;1999.90;999.90;;;10.10;99.90;;;;;;4993429;28;20187;-67
2022/09/23 04:51:14;;;;;;;1999.90;999.90;;;10.10;99.90;;;;;;4993417;28;20440;-67
2022/09/23 04:53:41;;;;;;;1999.90;999.90;;;10.10;99.90;;;;;;4993685;28;20406;-66
2022/09/23 04:56:10;;;;;;;1999.90;999.90;;;10.20;99.90;;;;;;4993470;28;20434;-68
2022/09/23 04:58:37;;;;;;;1999.90;999.90;;;10.10;99.90;;;;;;4993431;28;20468;-68
2022/09/23 05:01:16;;;;;;;1999.90;999.90;;;10.10;99.90;;;;;;4993273;28;20479;-68
2022/09/23 05:03:43;;;;;;;1999.90;999.90;;;10.00;99.90;;;;;;4993381;28;20423;-67
2022/09/23 05:06:12;;;;;;;1999.90;999.90;;;10.00;99.90;;;;;;4993244;28;20462;-68
2022/09/23 05:08:38;;;;;;;1999.90;999.90;;;10.00;99.90;;;;;;4993206;28;20455;-67
2022/09/23 05:11:04;;;;;;;1999.90;999.90;;;10.00;99.90;;;;;;4993253;28;20428;-67
2022/09/23 05:13:31;;;;;;;1999.90;999.90;;;10.00;99.90;;;;;;4993121;28;20405;-67
2022/09/23 05:16:06;;;;;;;1999.90;999.90;;;10.00;99.90;;;;;;4993048;28;20181;-67
2022/09/23 05:18:33;;;;;;;1999.90;999.90;;;10.00;99.90;;;;;;4992935;28;20408;-67
2022/09/23 05:21:00;;;;;;;1999.90;999.90;;;10.00;99.90;;;;;;4993121;28;20424;-68
2022/09/23 05:23:26;;;;;;;1999.90;999.90;;;9.90;99.90;;;;;;4993105;28;20902;-68
2022/09/23 05:26:04;;;;;;;1999.90;999.90;;;9.90;99.90;;;;;;4992801;28;20983;-68
2022/09/23 05:28:33;;;;;;;1999.90;999.90;;;10.00;99.90;;;;;;4992843;28;20429;-68
2022/09/23 05:31:02;;;;;;;1999.90;999.90;;;10.00;99.90;;;;;;4992885;28;20518;-67
2022/09/23 05:33:28;;;;;;;1999.90;999.90;;;10.00;99.90;;;;;;4992848;28;20412;-67
2022/09/23 05:35:54;;;;;;;1999.90;999.90;;;9.90;99.90;;;;;;4992880;28;20420;-66
2022/09/23 05:38:20;;;;;;;1999.90;999.90;;;9.90;99.90;;;;;;4992670;28;20426;-68
2022/09/23 05:40:45;;;;;;;1999.90;999.90;;;10.00;99.90;;;;;;4992731;28;20201;-69
2022/09/23 05:43:11;;;;;;;1999.90;999.90;;;10.00;99.90;;;;;;4992843;28;20177;-67
2022/09/23 05:45:36;;;;;;;1999.90;999.90;;;9.90;99.90;;;;;;4992669;28;20250;-66
2022/09/23 05:48:02;;;;;;;1999.90;999.90;;;9.90;99.90;;;;;;4992487;28;20178;-69
2022/09/23 05:50:27;;;;;;;1999.90;999.90;;;9.90;99.90;;;;;;4992581;28;20185;-68
2022/09/23 05:52:53;;;;;;;1999.90;999.90;;;10.00;99.90;;;;;;4992970;28;20531;-67
2022/09/23 05:55:19;;;;;;;1999.90;999.90;;;10.00;99.90;;;;;;4992631;28;20170;-67
2022/09/23 05:57:44;;;;;;;1999.90;999.90;;;10.10;99.90;;;;;;4992404;28;20408;-67
2022/09/23 06:00:11;;;;;;;1999.90;999.90;;;10.00;99.90;;;;;;4992645;28;20184;-67
2022/09/23 06:02:36;;;;;;;1999.90;999.90;;;10.00;99.90;;;;;;4992668;28;20288;-67
2022/09/23 06:05:02;;;;;;;1999.90;999.90;;;10.10;99.90;;;;;;4992576;28;21017;-66
2022/09/23 06:07:28;;;;;;;1999.90;999.90;;;10.20;99.90;;;;;;4992294;28;20175;-67
2022/09/23 06:09:54;;;;;;;1999.90;999.90;;;10.30;99.90;;;;;;4992501;28;20197;-67
2022/09/23 06:12:21;;;;;;;1999.90;999.90;;;10.30;99.90;;;;;;4992451;28;20460;-67
2022/09/23 06:14:47;;;;;;;1999.90;999.90;;;10.40;99.90;;;;;;4992523;28;20184;-67
2022/09/23 06:17:13;;;;;;;1999.90;999.90;;;10.50;99.90;;;;;;4992141;28;20496;-67
2022/09/23 06:19:38;;;;;;;1999.90;999.90;;;10.60;99.90;;;;;;4992483;28;20463;-67
2022/09/23 06:22:04;;;;;;;1999.90;999.90;;;10.70;99.90;;;;;;4992643;28;20604;-67
2022/09/23 06:24:29;;;;;;;1999.90;999.90;;;10.70;99.90;;;;;;4992420;28;20192;-68
2022/09/23 06:26:55;;;;;;;1999.90;999.90;;;10.80;99.90;;;;;;4996060;28;20228;-67
2022/09/23 06:29:21;;;;;;;1999.90;999.90;;;10.90;99.90;;;;;;4996530;28;20252;-67
2022/09/23 06:31:48;;;;;;;1999.90;999.90;;;11.00;99.90;;;;;;4996208;28;20950;-67
2022/09/23 06:34:13;;;;;;;1999.90;999.90;;;11.10;99.90;;;;;;4996194;28;20176;-67
2022/09/23 06:36:42;;;;;;;1999.90;999.90;;;11.10;99.90;;;;;;4995970;28;20416;-67
2022/09/23 06:39:08;;;;;;;1999.90;999.90;;;11.20;99.90;;;;;;4996059;28;20573;-68
2022/09/23 06:41:33;;;;;;;1999.90;999.90;;;11.30;99.90;;;;;;4996193;28;20435;-68
2022/09/23 06:43:59;;;;;;;1999.90;999.90;;;11.40;99.90;;;;;;4996095;28;20170;-68
2022/09/23 06:46:25;;;;;;;1999.90;999.90;;;11.60;99.90;;;;;;4995897;28;20212;-68
2022/09/23 06:48:50;;;;;;;1999.90;999.90;;;11.70;99.90;;;;;;4995757;28;20631;-67
2022/09/23 06:51:20;;;;;;;1999.90;999.90;;;11.80;99.90;;;;;;4995748;28;20217;-68
2022/09/23 06:53:47;;;;;;;1999.90;999.90;;;11.90;99.90;;;;;;4995858;28;20571;-68
2022/09/23 06:56:14;;;;;;;1999.90;999.90;;;12.10;99.90;;;;;;4995674;28;20786;-68
2022/09/23 06:58:40;;;;;;;1999.90;999.90;;;12.20;99.90;;;;;;4995570;28;20409;-67
2022/09/23 07:01:16;;;;;;;1999.90;999.90;;;12.30;99.90;;;;;;4995554;28;20441;-68
2022/09/23 07:03:43;;;;;;;1999.90;999.90;;;12.40;99.90;;;;;;4995701;28;20193;-68
2022/09/23 07:06:08;;;;;;;1999.90;999.90;;;12.50;99.90;;;;;;4995365;28;20472;-68
2022/09/23 07:08:34;;;;;;;1999.90;999.90;;;12.50;99.90;;;;;;4995430;28;20409;-67
2022/09/23 07:11:05;;;;;;;1999.90;999.90;;;12.60;99.90;;;;;;4995634;28;20695;-67
2022/09/23 07:13:35;;;;;;;1999.90;999.90;;;12.80;99.90;;;;;;4995560;28;20261;-68
2022/09/23 07:16:01;;;;;;;1999.90;999.90;;;12.90;99.90;;;;;;4995397;28;20417;-67
2022/09/23 07:18:29;;;;;;;1999.90;999.90;;;13.00;99.90;;;;;;4995182;28;20780;-67
2022/09/23 07:20:56;;;;;;;1999.90;999.90;;;13.10;99.90;;;;;;4995253;28;20436;-68
2022/09/23 07:23:22;;;;;;;1999.90;999.90;;;13.20;99.90;;;;;;4995524;28;20565;-68
2022/09/23 07:25:50;;;;;;;1999.90;999.90;;;13.30;99.90;;;;;;4995140;28;20548;-68
2022/09/23 07:28:17;;;;;;;1999.90;999.90;;;13.20;99.90;;;;;;4995126;28;20509;-67
2022/09/23 07:30:44;;;;;;;1999.90;999.90;;;13.30;99.90;;;;;;4995058;28;20505;-68
2022/09/23 07:33:10;;;;;;;1999.90;999.90;;;13.30;99.90;;;;;;4995097;28;20410;-68
2022/09/23 07:35:39;;;;;;;1999.90;999.90;;;13.40;99.90;;;;;;4994881;28;20413;-68
2022/09/23 07:38:06;;;;;;;1999.90;999.90;;;13.50;99.90;;;;;;4993802;28;20891;-68
2022/09/23 07:40:31;;;;;;;1999.90;999.90;;;13.60;99.90;;;;;;4994853;28;20426;-68
2022/09/23 07:42:58;;;;;;;1999.90;999.90;;;13.70;99.90;;;;;;4995009;28;20827;-68
2022/09/23 07:45:24;;;;;;;1999.90;999.90;;;13.70;99.90;;;;;;4994863;28;20228;-68
2022/09/23 07:47:49;;;;;;;1999.90;999.90;;;13.80;99.90;;;;;;4994434;28;20514;-68
2022/09/23 07:50:15;;;;;;;1999.90;999.90;;;13.80;99.90;;;;;;4994717;28;20587;-68
2022/09/23 07:52:41;;;;;;;1999.90;999.90;;;14.00;99.90;;;;;;4994699;28;20196;-68
2022/09/23 07:55:07;;;;;;;1999.90;999.90;;;14.10;99.90;;;;;;4994760;28;20194;-68
2022/09/23 07:57:33;;;;;;;1999.90;999.90;;;14.20;99.90;;;;;;4994358;28;20880;-68
2022/09/23 07:59:59;;;;;;;1999.90;999.90;;;14.30;99.90;;;;;;4994589;28;20543;-68
2022/09/23 08:02:25;;;;;;;1999.90;999.90;;;14.40;99.90;;;;;;4994485;28;20233;-68
2022/09/23 08:04:52;;;;;;;1999.90;999.90;;;14.60;99.90;;;;;;4994482;28;20997;-68
2022/09/23 08:07:18;;;;;;;1999.90;999.90;;;14.60;99.90;;;;;;4994197;28;20185;-68
2022/09/23 08:09:44;;;;;;;1999.90;999.90;;;14.60;99.90;;;;;;4994455;28;20471;-67
2022/09/23 08:12:14;;;;;;;1999.90;999.90;;;14.70;99.90;;;;;;4994323;28;20198;-68
2022/09/23 08:14:40;;;;;;;1999.90;999.90;;;14.80;99.90;;;;;;4994423;28;20496;-68
2022/09/23 08:17:06;;;;;;;1999.90;999.90;;;14.90;99.90;;;;;;4993938;28;20413;-68
2022/09/23 08:19:32;;;;;;;1999.90;999.90;;;15.00;99.90;;;;;;4994202;28;20467;-68
2022/09/23 08:21:58;;;;;;;1999.90;999.90;;;15.10;99.90;;;;;;4994174;28;20507;-67
2022/09/23 08:24:25;;;;;;;1999.90;999.90;;;15.20;99.90;;;;;;4993124;28;20275;-68
2022/09/23 08:26:52;;;;;;;1999.90;999.90;;;15.30;99.90;;;;;;4985936;28;20186;-68
2022/09/23 08:29:20;;;;;;;1999.90;999.90;;;15.40;99.90;;;;;;4988033;28;20933;-68
2022/09/23 08:31:48;;;;;;;1999.90;999.90;;;15.50;99.90;;;;;;4993670;28;20431;-68
2022/09/23 08:34:14;;;;;;;1999.90;999.90;;;15.60;99.90;;;;;;4994187;28;20495;-68
2022/09/23 08:36:40;;;;;;;1999.90;999.90;;;15.70;99.90;;;;;;4993861;28;20573;-68
2022/09/23 08:39:06;;;;;;;1999.90;999.90;;;15.80;99.90;;;;;;4993776;28;20409;-68
2022/09/23 08:41:53;;;;;;;1999.90;999.90;;;15.90;99.90;;;;;;4993791;28;20198;-68
2022/09/23 08:44:41;;;;;;;1999.90;999.90;;;16.00;99.90;;;;;;4993859;28;20265;-68
2022/09/23 08:47:12;;;;;;;1999.90;999.90;;;16.10;99.90;;;;;;4993471;28;20833;-68
2022/09/23 08:49:50;;;;;;;1999.90;999.90;;;16.20;99.90;;;;;;4993463;28;20744;-67
2022/09/23 08:52:38;;;;;;;1999.90;999.90;;;16.30;99.90;;;;;;4993334;28;20469;-68
2022/09/23 08:55:09;;;;;;;1999.90;999.90;;;16.40;99.90;;;;;;4991086;28;20934;-68
2022/09/23 08:57:46;;;;;;;1999.90;999.90;;;16.50;99.90;;;;;;4992157;28;20844;-68
2022/09/23 09:00:26;;;;;;;1999.90;999.90;;;16.50;99.90;;;;;;5000239;28;20469;-68
2022/09/23 09:02:53;;;;;;;1999.90;999.90;;;16.50;99.90;;;;;;4973963;28;20409;-68
2022/09/23 09:05:26;;;;;;;1999.90;999.90;;;16.50;99.90;;;;;;4989070;28;20453;-68
2022/09/23 09:07:54;;;;;;;1999.90;999.90;;;16.70;99.90;;;;;;4990310;28;20419;-69
2022/09/23 09:10:27;;;;;;;1999.90;999.90;;;16.70;99.90;;;;;;4992008;28;20415;-68
2022/09/23 09:13:09;;;;;;;1999.90;999.90;;;16.70;99.90;;;;;;4992747;28;20925;-67
2022/09/23 09:15:44;;;;;;;1999.90;999.90;;;16.80;99.90;;;;;;4992847;28;20472;-69
2022/09/23 09:18:19;;;;;;;1999.90;999.90;;;16.90;99.90;;;;;;4991748;28;20424;-68
2022/09/23 09:20:59;;;;;;;1999.90;999.90;;;17.00;99.90;;;;;;4992916;28;20532;-68
2022/09/23 09:23:37;;;;;;;1999.90;999.90;;;17.20;99.90;;;;;;4988929;28;20507;-69
2022/09/23 09:26:04;;;;;;;1999.90;999.90;;;17.40;99.90;;;;;;4991236;28;20468;-69
2022/09/23 09:28:50;;;;;;;1999.90;999.90;;;17.50;99.90;;;;;;4991900;28;20471;-69
2022/09/23 09:31:33;;;;;;;1999.90;999.90;;;17.60;99.90;;;;;;4992514;28;20423;-68
2022/09/23 09:34:05;;;;;;;1999.90;999.90;;;17.70;99.90;;;;;;4992481;28;20399;-69
2022/09/23 09:36:45;;;;;;;1999.90;999.90;;;17.90;99.90;;;;;;4992299;28;20415;-69
2022/09/23 09:39:13;;;;;;;1999.90;999.90;;;18.10;99.90;;;;;;4991892;28;20423;-69
2022/09/23 09:41:46;;;;;;;1999.90;999.90;;;18.30;99.90;;;;;;4992377;28;20425;-70
2022/09/23 09:44:57;;;;;;;1999.90;999.90;;;18.50;99.90;;;;;;4992342;28;20503;-68
2022/09/23 09:47:45;;;;;;;1999.90;999.90;;;18.70;99.90;;;;;;4983314;28;20488;-69
2022/09/23 09:50:21;;;;;;;1999.90;999.90;;;18.60;99.90;;;;;;4992350;28;20393;-69
2022/09/23 09:52:55;;;;;;;1999.90;999.90;;;18.70;99.90;;;;;;5007248;23;20489;-69
2022/09/23 09:55:25;;;;;;;1999.90;999.90;;;18.70;99.90;;;;;;4992173;28;20408;-69
2022/09/23 09:58:04;;;;;;;1999.90;999.90;;;18.70;99.90;;;;;;4991521;28;20479;-69
2022/09/23 10:00:34;;;;;;;1999.90;999.90;;;18.80;99.90;;;;;;4991525;28;20409;-70
2022/09/23 10:03:20;;;;;;;1999.90;999.90;;;18.90;99.90;;;;;;4991823;28;20435;-70
2022/09/23 10:05:51;;;;;;;1999.90;999.90;;;19.10;99.90;;;;;;4992100;28;20531;-69
2022/09/23 10:08:23;;;;;;;1999.90;999.90;;;19.30;99.90;;;;;;4991993;28;20417;-71
2022/09/23 10:10:58;;;;;;;1999.90;999.90;;;19.50;99.90;;;;;;4991783;28;20410;-71
2022/09/23 10:13:26;;;;;;;1999.90;999.90;;;19.60;99.90;;;;;;4991927;28;20541;-71
2022/09/23 10:15:55;;;;;;;1999.90;999.90;;;19.70;99.90;;;;;;4991600;28;20463;-71
2022/09/23 10:18:46;;;;;;;1999.90;999.90;;;19.90;99.90;;;;;;4991156;28;21073;-70
2022/09/23 10:21:16;;;;;;;1999.90;999.90;;;19.90;99.90;;;;;;4990018;28;20504;-71
2022/09/23 10:23:44;;;;;;;1999.90;999.90;;;20.00;99.90;;;;;;4987781;28;20408;-69
2022/09/23 10:26:12;;;;;;;1999.90;999.90;;;19.90;99.90;;;;;;4990282;28;20455;-71
2022/09/23 10:28:49;;;;;;;1999.90;999.90;;;19.90;99.90;;;;;;4990250;28;20404;-71
2022/09/23 10:31:25;;;;;;;1999.90;999.90;;;19.90;99.90;;;;;;4989580;28;20403;-70
2022/09/23 10:33:54;;;;;;;1999.90;999.90;;;20.00;99.90;;;;;;4989137;28;20411;-69
2022/09/23 10:36:20;;;;;;;1999.90;999.90;;;20.10;99.90;;;;;;4990224;28;20845;-70
2022/09/23 10:38:54;;;;;;;1999.90;999.90;;;20.20;99.90;;;;;;4988973;28;20420;-70
2022/09/23 10:47:45;;;;;;;1999.90;999.90;;;20.40;98.50;;;;;;4990974;28;20440;-70
2022/09/23 10:50:22;;;;;;;1999.90;999.90;;;20.40;97.70;;;;;;4991834;28;20400;-69
2022/09/23 10:52:56;;;;;;;1999.90;999.90;;;20.60;95.10;;;;;;4991608;28;20504;-69
2022/09/23 10:55:56;;;;;;;1999.90;999.90;;;20.50;95.40;;;;;;4991544;28;20495;-69
2022/09/23 10:58:30;;;;;;;1999.90;999.90;;;20.40;95.50;;;;;;4991196;28;20407;-69
2022/09/23 11:01:17;;;;;;;1999.90;999.90;;;20.40;95.30;;;;;;4991140;28;20961;-69
2022/09/23 11:03:51;;;;;;;1999.90;999.90;;;20.40;93.40;;;;;;4991351;28;20789;-69
2022/09/23 11:06:20;;;;;;;1999.90;999.90;;;20.40;93.40;;;;;;4991429;28;20889;-69
2022/09/23 11:08:51;;;;;;;1999.90;999.90;;;20.30;94.10;;;;;;4990541;28;20462;-69
2022/09/23 11:11:42;;;;;;;1999.90;999.90;;;20.30;93.80;;;;;;4992883;28;20404;-69
2022/09/23 11:14:28;;;;;;;1999.90;999.90;;;20.20;95.70;;;;;;4994882;28;20828;-69
2022/09/23 11:17:22;;;;;;;1999.90;999.90;;;20.40;92.70;;;;;;4993981;28;20402;-69
2022/09/23 11:19:59;;;;;;;1999.90;999.90;;;20.60;93.30;;;;;;4995135;28;20484;-67
2022/09/23 11:22:44;;;;;;;1999.90;999.90;;;20.60;91.90;;;;;;4994740;28;20773;-67
2022/09/23 11:25:13;;;;;;;1999.90;999.90;;;20.50;90.50;;;;;;4994765;28;20455;-68
2022/09/23 11:28:02;;;;;;;1999.90;999.90;;;20.50;90.40;;;;;;4994134;28;20409;-67
2022/09/23 11:30:52;;;;;;;1999.90;999.90;;;20.30;93.60;;;;;;4994556;28;20401;-68
2022/09/23 11:33:43;;;;;;;1999.90;999.90;;;20.20;92.70;;;;;;4985617;28;20465;-73
2022/09/23 11:36:25;;;;;;;1999.90;999.90;;;20.30;93.90;;;;;;4991412;28;20421;-67
2022/09/23 11:38:54;;;;;;;1999.90;999.90;;;20.50;93.20;;;;;;4993813;28;20823;-68
2022/09/23 11:41:30;;;;;;;1999.90;999.90;;;20.80;92.90;;;;;;4994492;28;20417;-68
2022/09/23 11:44:04;;;;;;;1999.90;999.90;;;20.90;91.90;;;;;;4994643;28;20892;-69
2022/09/23 11:46:42;;;;;;;1999.90;999.90;;;21.30;90.70;;;;;;4993930;28;20541;-68
2022/09/23 11:49:20;;;;;;;1999.90;999.90;;;21.50;92.80;;;;;;4994357;28;21015;-67
2022/09/23 11:52:18;;;;;;;1999.90;999.90;;;21.70;87.00;;;;;;4994176;28;20455;-67
2022/09/23 11:54:59;;;;;;;1999.90;999.90;;;22.20;87.60;;;;;;4994213;28;20417;-72
2022/09/23 11:57:34;;;;;;;1999.90;999.90;;;22.50;79.30;;;;;;4993702;28;20402;-68
2022/09/23 12:00:03;;;;;;;1999.90;999.90;;;23.00;75.20;;;;;;4993969;28;20387;-67
2022/09/23 12:02:32;;;;;;;1999.90;999.90;;;23.50;75.90;;;;;;4993943;28;20951;-68
2022/09/23 12:05:16;;;;;;;1999.90;999.90;;;23.90;65.00;;;;;;4994266;28;20426;-68
2022/09/23 12:07:52;;;;;;;1999.90;999.90;;;24.30;57.70;;;;;;4993158;28;20791;-67
2022/09/23 12:10:20;;;;;;;1999.90;999.90;;;24.70;54.80;;;;;;4993968;28;20885;-71
2022/09/23 12:13:03;;;;;;;1999.90;999.90;;;25.10;51.80;;;;;;4993978;28;20944;-68
2022/09/23 12:15:38;;;;;;;1999.90;999.90;;;25.50;48.50;;;;;;4993611;28;20384;-68
2022/09/23 12:18:35;;;;;;;1999.90;999.90;;;25.50;43.50;;;;;;4993308;28;20413;-68
2022/09/23 12:21:32;;;;;;;1999.90;999.90;;;25.50;41.00;;;;;;4994235;28;20408;-67
2022/09/23 12:24:17;;;;;;;1999.90;999.90;;;25.40;41.70;;;;;;4992676;28;20407;-68
2022/09/23 12:26:48;;;;;;;1999.90;999.90;;;25.00;41.70;;;;;;4993215;28;20460;-70
2022/09/23 12:29:14;;;;;;;1999.90;999.90;;;24.70;40.20;;;;;;4993172;28;20466;-67